Time;durP1;ratioP1;P1;durP2;ratioP2;P2;SDS_P1;SDS_P2;PMS_P1;PMS_P2;Temp;Humidity;BMP_temperature;BMP_pressure;BME280_temperature;BME280_humidity;BME280_pressure;Samples;Min_cycle;Max_cycle;Signal;HPM_P1;HPM_P2
2023/01/06 00:00:02;;;;;;;6.15;3.00;;;;;;;9.05;100.00;101150.31;689088;28;1485;-65
2023/01/06 00:00:26;;;;;;;5.50;3.03;;;;;;;9.04;100.00;101148.53;688048;28;1239;-65
2023/01/06 00:00:46;;;;;;;6.63;3.15;;;;;;;9.01;100.00;101143.31;687860;28;4452;-65
2023/01/06 00:01:18;;;;;;;6.07;2.88;;;;;;;9.03;100.00;101152.03;687781;28;1311;-64
2023/01/06 00:01:38;;;;;;;5.90;3.10;;;;;;;8.99;100.00;101143.28;687562;28;1983;-65
2023/01/06 00:02:01;;;;;;;5.65;3.13;;;;;;;8.96;100.00;101142.41;688318;28;1486;-65
2023/01/06 00:02:22;;;;;;;7.20;3.15;;;;;;;8.94;100.00;101146.72;687936;28;1427;-65
2023/01/06 00:02:44;;;;;;;8.65;3.10;;;;;;;8.93;100.00;101147.56;688956;28;1579;-64
2023/01/06 00:03:04;;;;;;;8.45;3.20;;;;;;;8.93;100.00;101145.88;687390;28;1538;-64
2023/01/06 00:03:25;;;;;;;8.30;3.20;;;;;;;8.94;100.00;101147.59;684236;28;1697;-65
2023/01/06 00:03:54;;;;;;;6.38;3.00;;;;;;;8.93;100.00;101153.69;684282;28;4533;-66
2023/01/06 00:04:14;;;;;;;8.77;3.33;;;;;;;8.94;100.00;101151.94;681372;28;2303;-65
2023/01/06 00:04:34;;;;;;;7.00;3.20;;;;;;;8.95;100.00;101146.75;685728;28;1168;-65
2023/01/06 00:04:55;;;;;;;7.80;3.42;;;;;;;8.96;100.00;101150.25;685073;28;1270;-65
2023/01/06 00:05:15;;;;;;;8.87;3.30;;;;;;;8.95;100.00;101143.25;686441;28;1332;-65
2023/01/06 00:05:36;;;;;;;9.02;3.20;;;;;;;8.94;100.00;101150.19;687858;28;1483;-65
2023/01/06 00:05:58;;;;;;;6.47;3.30;;;;;;;8.92;100.00;101151.06;687375;28;1276;-65
2023/01/06 00:06:26;;;;;;;7.80;3.10;;;;;;;8.90;100.00;101137.97;691445;28;1311;-65
2023/01/06 00:06:46;;;;;;;6.97;3.13;;;;;;;8.91;100.00;101150.16;690465;28;4456;-65
2023/01/06 00:07:06;;;;;;;6.45;3.13;;;;;;;8.91;100.00;101149.31;689012;28;1417;-65
2023/01/06 00:07:27;;;;;;;4.90;2.70;;;;;;;8.91;100.00;101149.31;687539;28;1637;-65
2023/01/06 00:07:49;;;;;;;6.37;2.93;;;;;;;8.89;100.00;101148.41;688155;28;1477;-65
2023/01/06 00:08:09;;;;;;;7.82;3.20;;;;;;;8.89;100.00;101151.91;687070;28;1393;-65
2023/01/06 00:08:30;;;;;;;6.93;3.30;;;;;;;8.88;100.00;101142.31;688458;28;1238;-65
2023/01/06 00:08:50;;;;;;;6.25;3.15;;;;;;;8.87;100.00;101151.00;689293;28;1380;-65
2023/01/06 00:09:11;;;;;;;7.47;3.00;;;;;;;8.86;100.00;101146.63;687826;28;1403;-65
2023/01/06 00:09:33;;;;;;;6.70;3.13;;;;;;;8.86;100.00;101149.25;688078;28;1296;-65
2023/01/06 00:09:53;;;;;;;6.47;3.30;;;;;;;8.86;100.00;101146.63;687145;28;4297;-65
2023/01/06 00:10:14;;;;;;;6.93;3.20;;;;;;;8.86;100.00;101142.31;685933;28;1214;-65
2023/01/06 00:10:35;;;;;;;6.55;3.22;;;;;;;8.90;100.00;101147.56;688949;28;1226;-64
2023/01/06 00:10:56;;;;;;;6.68;3.10;;;;;;;8.95;100.00;101151.94;687704;28;1450;-65
2023/01/06 00:11:17;;;;;;;9.07;3.10;;;;;;;8.96;100.00;101145.03;688416;28;1258;-65
2023/01/06 00:11:37;;;;;;;6.88;2.80;;;;;;;8.96;100.00;101148.50;688095;28;1286;-65
2023/01/06 00:11:58;;;;;;;7.53;2.85;;;;;;;8.96;100.00;101147.63;687141;28;1415;-65
2023/01/06 00:12:18;;;;;;;8.50;3.13;;;;;;;8.95;100.00;101153.69;687524;28;1599;-65
2023/01/06 00:12:38;;;;;;;7.22;3.00;;;;;;;8.94;100.00;101149.34;684992;28;4329;-64
2023/01/06 00:12:59;;;;;;;6.13;2.80;;;;;;;8.92;100.00;101146.72;685556;28;1184;-65
2023/01/06 00:13:20;;;;;;;7.03;2.90;;;;;;;8.92;100.00;101151.06;683092;28;1236;-64
2023/01/06 00:13:40;;;;;;;6.97;2.80;;;;;;;8.92;100.00;101156.28;685619;28;1578;-65
2023/01/06 00:14:01;;;;;;;5.82;2.78;;;;;;;8.92;100.00;101149.31;682895;28;1264;-64
2023/01/06 00:14:21;;;;;;;7.05;3.05;;;;;;;8.91;100.00;101147.56;682080;28;1379;-64
2023/01/06 00:14:43;;;;;;;6.60;2.90;;;;;;;8.88;100.00;101147.53;678720;29;1290;-64
2023/01/06 00:15:03;;;;;;;7.53;3.00;;;;;;;8.85;100.00;101151.00;678219;29;1375;-66
2023/01/06 00:15:24;;;;;;;6.13;3.17;;;;;;;8.86;100.00;101151.84;682173;28;1482;-65
2023/01/06 00:15:44;;;;;;;6.00;2.90;;;;;;;8.85;100.00;101143.16;677461;29;4355;-65
2023/01/06 00:16:08;;;;;;;6.07;2.90;;;;;;;8.86;100.00;101151.84;677776;29;1410;-65
2023/01/06 00:16:28;;;;;;;7.82;3.15;;;;;;;8.83;100.00;101147.50;679143;28;1833;-65
2023/01/06 00:16:49;;;;;;;8.05;3.20;;;;;;;8.84;100.00;101144.00;682388;28;1295;-65
2023/01/06 00:17:09;;;;;;;7.57;3.10;;;;;;;8.86;100.00;101146.63;683551;28;1406;-65
2023/01/06 00:17:30;;;;;;;6.87;2.87;;;;;;;8.88;100.00;101144.06;683170;28;1415;-65
2023/01/06 00:17:50;;;;;;;6.40;2.70;;;;;;;8.86;100.00;101150.13;685986;28;1587;-65
2023/01/06 00:18:10;;;;;;;6.57;3.00;;;;;;;8.88;100.00;101144.06;685765;28;1367;-65
2023/01/06 00:18:31;;;;;;;7.30;2.92;;;;;;;9.01;100.00;101145.91;686011;28;1384;-65
2023/01/06 00:18:56;;;;;;;7.87;2.90;;;;;;;9.02;100.00;101152.88;686537;28;4466;-65
2023/01/06 00:19:16;;;;;;;7.80;3.00;;;;;;;9.03;100.00;101145.06;682959;28;1441;-65
2023/01/06 00:19:36;;;;;;;8.88;3.10;;;;;;;9.02;100.00;101145.06;682921;28;1619;-65
2023/01/06 00:19:57;;;;;;;7.27;2.93;;;;;;;9.05;100.00;101152.91;685107;28;3637;-66
2023/01/06 00:20:17;;;;;;;8.05;2.80;;;;;;;9.02;100.00;101143.31;684553;28;1288;-65
2023/01/06 00:20:38;;;;;;;9.47;2.90;;;;;;;9.03;100.00;101149.44;686159;28;1262;-65
2023/01/06 00:20:59;;;;;;;7.55;2.90;;;;;;;9.01;100.00;101149.41;684859;28;1263;-66
2023/01/06 00:21:20;;;;;;;8.43;3.08;;;;;;;9.04;100.00;101145.94;687622;28;1361;-65
2023/01/06 00:21:41;;;;;;;6.63;2.60;;;;;;;9.04;100.00;101151.16;687781;28;4693;-65
2023/01/06 00:22:01;;;;;;;7.28;2.90;;;;;;;9.02;100.00;101143.31;684285;28;1652;-65
2023/01/06 00:22:22;;;;;;;6.33;2.80;;;;;;;9.02;100.00;101152.88;685079;28;1566;-65
2023/01/06 00:22:42;;;;;;;6.70;2.90;;;;;;;9.01;100.00;101149.41;685395;28;1307;-66
2023/01/06 00:23:03;;;;;;;7.70;2.97;;;;;;;9.06;100.00;101148.59;684541;28;1292;-65
2023/01/06 00:23:23;;;;;;;7.22;3.03;;;;;;;9.18;100.00;101141.75;685798;28;1109;-64
2023/01/06 00:23:43;;;;;;;5.93;2.80;;;;;;;9.15;100.00;101146.94;685613;28;1472;-65
2023/01/06 00:24:04;;;;;;;6.13;2.85;;;;;;;9.15;100.00;101146.94;687781;28;1286;-65
2023/01/06 00:24:24;;;;;;;6.77;2.90;;;;;;;9.16;100.00;101139.97;685065;28;1454;-66
2023/01/06 00:24:45;;;;;;;6.70;3.00;;;;;;;9.20;100.00;101141.75;685068;28;4422;-65
2023/01/06 00:25:06;;;;;;;7.60;3.50;;;;;;;9.18;100.00;101146.94;683856;28;1356;-64
2023/01/06 00:25:26;;;;;;;6.57;2.95;;;;;;;9.18;100.00;101141.75;683684;28;1251;-65
2023/01/06 00:25:50;;;;;;;6.63;2.97;;;;;;;9.23;100.00;101140.91;682917;28;1128;-64
2023/01/06 00:26:10;;;;;;;6.03;2.60;;;;;;;9.19;100.00;101143.50;685527;28;1330;-65
2023/01/06 00:26:31;;;;;;;6.93;2.80;;;;;;;9.18;100.00;101144.34;688421;28;1286;-65
2023/01/06 00:26:51;;;;;;;8.85;3.00;;;;;;;9.16;100.00;101146.06;685584;28;1541;-65
2023/01/06 00:27:12;;;;;;;5.63;2.73;;;;;;;9.13;100.00;101140.81;686986;28;1372;-65
2023/01/06 00:27:32;;;;;;;6.50;3.00;;;;;;;9.11;100.00;101145.16;687799;28;1203;-65
2023/01/06 00:27:54;;;;;;;6.93;3.30;;;;;;;9.11;100.00;101141.66;686446;28;4373;-65
2023/01/06 00:28:14;;;;;;;6.60;2.72;;;;;;;9.13;100.00;101142.56;684821;28;1384;-65
2023/01/06 00:28:36;;;;;;;8.33;3.00;;;;;;;9.23;100.00;101136.56;684742;28;1208;-66
2023/01/06 00:28:56;;;;;;;6.70;2.80;;;;;;;9.22;100.00;101136.53;683006;28;1243;-65
2023/01/06 00:29:19;;;;;;;6.43;2.58;;;;;;;9.18;100.00;101136.53;682799;28;1270;-65
2023/01/06 00:29:39;;;;;;;6.80;2.60;;;;;;;9.17;100.00;101142.59;683164;28;1201;-65
2023/01/06 00:30:00;;;;;;;5.85;2.63;;;;;;;9.16;100.00;101142.59;683200;28;1351;-64
2023/01/06 00:30:20;;;;;;;6.23;2.77;;;;;;;9.13;100.00;101145.16;683373;28;1287;-65
2023/01/06 00:30:43;;;;;;;7.20;2.90;;;;;;;9.13;100.00;101137.34;683190;28;4599;-65
2023/01/06 00:31:11;;;;;;;7.40;2.97;;;;;;;9.13;100.00;101138.22;685603;28;2250;-65
2023/01/06 00:31:33;;;;;;;6.60;2.83;;;;;;;9.26;100.00;101141.78;687031;28;1336;-65
2023/01/06 00:31:58;;;;;;;7.13;2.75;;;;;;;9.31;100.00;101134.00;684954;28;1581;-65
2023/01/06 00:32:19;;;;;;;6.80;2.70;;;;;;;9.30;100.00;101132.25;686866;28;2008;-65
2023/01/06 00:32:39;;;;;;;6.40;2.90;;;;;;;9.26;100.00;101141.78;685362;28;1335;-65
2023/01/06 00:32:59;;;;;;;6.30;2.80;;;;;;;9.24;100.00;101138.31;683828;28;1302;-66
2023/01/06 00:33:20;;;;;;;6.77;2.83;;;;;;;9.29;100.00;101143.53;682961;28;1117;-66
2023/01/06 00:33:42;;;;;;;6.47;2.50;;;;;;;9.30;100.00;101142.69;679739;29;4341;-65
2023/01/06 00:34:02;;;;;;;6.43;2.40;;;;;;;9.27;100.00;101140.94;679908;29;1176;-66
2023/01/06 00:34:23;;;;;;;4.90;2.30;;;;;;;9.23;100.00;101133.94;681643;28;1225;-64
2023/01/06 00:34:43;;;;;;;4.30;2.40;;;;;;;9.24;100.00;101133.09;683545;28;1441;-65
2023/01/06 00:35:04;;;;;;;5.60;2.50;;;;;;;9.30;100.00;101132.25;686018;28;1161;-65
2023/01/06 00:35:24;;;;;;;5.65;2.40;;;;;;;9.33;100.00;101140.09;686038;28;1427;-65
2023/01/06 00:35:44;;;;;;;5.53;2.50;;;;;;;9.29;100.00;101133.13;685362;28;1505;-65
2023/01/06 00:36:06;;;;;;;5.20;2.40;;;;;;;9.36;100.00;101127.97;685603;28;1361;-65
2023/01/06 00:36:27;;;;;;;5.45;2.20;;;;;;;9.31;100.00;101129.66;685048;28;1298;-65
2023/01/06 00:36:47;;;;;;;5.93;2.20;;;;;;;9.34;100.00;101128.81;685033;28;4372;-65
2023/01/06 00:37:08;;;;;;;6.73;2.40;;;;;;;9.31;100.00;101128.78;684938;28;1324;-65
2023/01/06 00:37:28;;;;;;;5.50;2.40;;;;;;;9.32;100.00;101131.41;688947;28;1365;-65
2023/01/06 00:37:49;;;;;;;5.47;2.45;;;;;;;9.31;100.00;101139.22;685336;28;1352;-65
2023/01/06 00:38:09;;;;;;;5.33;2.40;;;;;;;9.26;100.00;101130.47;687784;28;1559;-65
2023/01/06 00:38:29;;;;;;;5.40;2.40;;;;;;;9.23;100.00;101130.47;684787;28;1229;-65
2023/01/06 00:38:50;;;;;;;6.50;2.50;;;;;;;9.20;100.00;101136.53;686015;28;5003;-65
2023/01/06 00:39:12;;;;;;;5.40;2.50;;;;;;;9.19;100.00;101129.56;679193;29;1846;-65
2023/01/06 00:39:33;;;;;;;5.43;2.53;;;;;;;9.18;100.00;101128.69;681680;28;1291;-65
2023/01/06 00:39:53;;;;;;;5.97;2.60;;;;;;;9.18;100.00;101135.66;683058;28;4350;-65
2023/01/06 00:40:14;;;;;;;6.27;2.57;;;;;;;9.16;100.00;101137.38;682102;28;1246;-65
2023/01/06 00:40:35;;;;;;;5.93;2.60;;;;;;;9.15;100.00;101139.09;683357;28;1603;-65
2023/01/06 00:40:56;;;;;;;6.35;2.55;;;;;;;9.16;100.00;101133.00;683817;28;1358;-65
2023/01/06 00:42:13;;;;;;;6.07;2.60;;;;;;;9.18;100.00;101133.91;683819;28;1915;-66
2023/01/06 00:42:34;;;;;;;6.40;2.60;;;;;;;9.20;100.00;101137.38;687168;28;1144;-65
2023/01/06 00:42:54;;;;;;;7.53;2.70;;;;;;;9.20;100.00;101139.13;690610;28;4305;-65
2023/01/06 00:43:14;;;;;;;5.67;2.50;;;;;;;9.17;100.00;101132.16;688339;28;1531;-65
2023/01/06 00:43:35;;;;;;;6.10;2.53;;;;;;;9.20;100.00;101132.19;688713;28;1671;-65
2023/01/06 00:43:56;;;;;;;6.73;2.50;;;;;;;9.17;100.00;101126.94;688510;28;1569;-66
2023/01/06 00:44:17;;;;;;;5.20;2.30;;;;;;;9.18;100.00;101130.44;688215;28;1546;-65
2023/01/06 00:44:39;;;;;;;6.37;2.60;;;;;;;9.19;100.00;101125.22;689102;28;1202;-65
2023/01/06 00:44:59;;;;;;;6.45;2.53;;;;;;;9.29;100.00;101123.56;684563;28;1228;-65
2023/01/06 00:45:19;;;;;;;5.17;2.40;;;;;;;9.34;100.00;101129.69;687458;28;1680;-65
2023/01/06 00:45:41;;;;;;;5.40;2.22;;;;;;;9.42;100.00;101124.53;687617;28;4480;-65
2023/01/06 00:46:02;;;;;;;5.78;2.40;;;;;;;9.40;100.00;101127.97;684730;28;1914;-65
2023/01/06 00:46:25;;;;;;;5.33;2.47;;;;;;;9.36;100.00;101125.34;685965;28;1395;-64
2023/01/06 00:46:45;;;;;;;5.35;2.40;;;;;;;9.32;100.00;101123.59;683140;28;1377;-65
2023/01/06 00:47:10;;;;;;;6.97;2.40;;;;;;;9.29;100.00;101123.56;683804;28;1102;-65
2023/01/06 00:47:31;;;;;;;7.68;2.58;;;;;;;9.29;100.00;101120.97;678711;29;2116;-66
2023/01/06 00:47:51;;;;;;;5.93;2.35;;;;;;;9.25;100.00;101121.78;680828;28;1196;-65
2023/01/06 00:48:12;;;;;;;5.87;2.63;;;;;;;9.23;100.00;101120.03;683425;28;1191;-65
2023/01/06 00:48:32;;;;;;;6.53;2.63;;;;;;;9.20;100.00;101126.97;687033;28;1062;-64
2023/01/06 00:48:53;;;;;;;5.20;2.27;;;;;;;9.17;100.00;101123.47;684699;28;4321;-65
2023/01/06 00:49:13;;;;;;;4.85;2.30;;;;;;;9.13;100.00;101121.69;685617;28;1014;-66
2023/01/06 00:49:34;;;;;;;6.40;2.47;;;;;;;9.13;100.00;101124.31;687929;28;1152;-65
2023/01/06 00:49:54;;;;;;;6.53;2.67;;;;;;;9.10;100.00;101119.06;688024;28;1163;-65
2023/01/06 00:50:14;;;;;;;5.37;2.40;;;;;;;9.08;100.00;101126.84;687970;28;1253;-65
2023/01/06 00:50:35;;;;;;;6.13;2.30;;;;;;;9.07;100.00;101125.13;685258;28;1294;-65
2023/01/06 00:51:00;;;;;;;6.20;2.53;;;;;;;9.04;100.00;101119.84;685078;28;1221;-65
2023/01/06 00:51:20;;;;;;;5.50;2.30;;;;;;;9.03;100.00;101119.00;684743;28;1388;-65
2023/01/06 00:51:41;;;;;;;6.25;2.60;;;;;;;9.03;100.00;101120.75;684271;28;4361;-65
2023/01/06 00:52:02;;;;;;;7.53;2.40;;;;;;;9.03;100.00;101124.22;685663;28;1169;-65
2023/01/06 00:52:23;;;;;;;6.70;2.30;;;;;;;9.00;100.00;101118.97;688126;28;1225;-64
2023/01/06 00:52:43;;;;;;;6.47;2.60;;;;;;;8.98;100.00;101122.44;685106;28;1450;-65
2023/01/06 00:53:03;;;;;;;7.38;2.70;;;;;;;8.97;100.00;101123.28;685545;28;1532;-65
2023/01/06 00:53:24;;;;;;;5.60;2.50;;;;;;;8.98;100.00;101120.69;681607;29;1207;-65
2023/01/06 00:53:44;;;;;;;5.30;2.30;;;;;;;8.99;100.00;101113.75;680264;29;1188;-65
2023/01/06 00:54:09;;;;;;;5.97;2.47;;;;;;;8.97;100.00;101113.75;683385;28;1421;-65
2023/01/06 00:54:30;;;;;;;6.13;2.60;;;;;;;9.02;100.00;101116.38;682948;28;1610;-66
2023/01/06 00:54:50;;;;;;;5.57;2.40;;;;;;;9.02;100.00;101119.00;682971;28;4633;-65
2023/01/06 00:55:11;;;;;;;5.43;2.67;;;;;;;9.02;100.00;101117.25;683867;28;1292;-64
2023/01/06 00:55:31;;;;;;;6.25;2.58;;;;;;;9.03;100.00;101120.75;684743;28;1350;-66
2023/01/06 00:55:58;;;;;;;8.07;2.50;;;;;;;9.03;100.00;101118.13;686327;28;1390;-65
2023/01/06 00:56:19;;;;;;;5.10;2.45;;;;;;;9.03;100.00;101120.75;689620;28;1437;-65
2023/01/06 00:56:43;;;;;;;6.83;2.53;;;;;;;9.07;100.00;101114.69;687998;28;1599;-65
2023/01/06 00:57:06;;;;;;;7.43;2.60;;;;;;;9.08;100.00;101111.19;687572;28;1153;-65
2023/01/06 00:57:26;;;;;;;6.78;2.42;;;;;;;9.10;100.00;101114.72;687473;28;1691;-65
2023/01/06 00:57:51;;;;;;;7.70;2.50;;;;;;;9.08;100.00;101113.81;687274;28;4296;-65
2023/01/06 00:58:11;;;;;;;6.18;2.40;;;;;;;9.10;100.00;101108.63;688501;28;1294;-65
2023/01/06 00:58:33;;;;;;;5.20;2.33;;;;;;;9.13;100.00;101108.66;685670;28;1344;-65
2023/01/06 00:58:53;;;;;;;5.70;2.50;;;;;;;9.13;100.00;101111.25;686576;28;1192;-65
2023/01/06 00:59:18;;;;;;;6.53;2.50;;;;;;;9.12;100.00;101110.38;685744;28;1406;-65
2023/01/06 00:59:38;;;;;;;6.30;2.50;;;;;;;9.13;100.00;101108.66;685288;28;1554;-65
2023/01/06 00:59:59;;;;;;;5.60;2.25;;;;;;;9.12;100.00;101106.91;685198;28;1452;-65
2023/01/06 01:00:20;;;;;;;5.30;2.40;;;;;;;9.11;100.00;101107.75;686257;28;1246;-66
2023/01/06 01:00:40;;;;;;;5.57;2.50;;;;;;;9.09;100.00;101112.97;687780;28;4314;-65
2023/01/06 01:01:05;;;;;;;7.33;2.70;;;;;;;9.07;100.00;101109.47;684720;28;1166;-65
2023/01/06 01:01:25;;;;;;;6.40;2.50;;;;;;;9.05;100.00;101105.97;685601;28;1132;-66
2023/01/06 01:01:47;;;;;;;5.87;2.60;;;;;;;9.05;100.00;101105.09;683336;28;1969;-65
2023/01/06 01:02:07;;;;;;;6.88;2.80;;;;;;;9.11;100.00;101103.44;681103;28;1417;-65
2023/01/06 01:02:28;;;;;;;6.40;2.50;;;;;;;9.11;100.00;101106.03;683593;28;1460;-65
2023/01/06 01:02:48;;;;;;;6.57;2.42;;;;;;;9.10;100.00;101104.28;681211;29;1422;-65
2023/01/06 01:03:08;;;;;;;6.20;2.60;;;;;;;9.10;100.00;101103.41;680541;28;1085;-65
2023/01/06 01:03:31;;;;;;;6.45;2.60;;;;;;;9.09;100.00;101101.66;680617;29;1122;-65
2023/01/06 01:03:52;;;;;;;6.70;2.88;;;;;;;9.07;100.00;101103.38;682811;28;4363;-65
2023/01/06 01:04:13;;;;;;;8.50;2.77;;;;;;;9.07;100.00;101101.66;681221;29;1296;-65
2023/01/06 01:04:35;;;;;;;6.85;2.60;;;;;;;9.08;100.00;101100.78;680357;29;1356;-65
2023/01/06 01:04:55;;;;;;;6.27;2.63;;;;;;;9.09;100.00;101112.09;682305;28;1263;-65
2023/01/06 01:05:16;;;;;;;7.82;3.00;;;;;;;9.08;100.00;101105.13;682132;28;1479;-66
2023/01/06 01:05:37;;;;;;;7.28;2.90;;;;;;;9.10;100.00;101103.41;680666;28;1259;-66
2023/01/06 01:06:05;;;;;;;6.77;3.00;;;;;;;9.13;100.00;101099.09;683588;28;1366;-66
2023/01/06 01:06:27;;;;;;;6.90;3.15;;;;;;;9.10;100.00;101099.06;686652;28;1212;-65
2023/01/06 01:06:49;;;;;;;6.70;3.30;;;;;;;9.16;100.00;101106.91;685553;28;4458;-65
2023/01/06 01:07:10;;;;;;;6.72;3.03;;;;;;;9.15;100.00;101099.97;684985;28;1216;-65
2023/01/06 01:07:30;;;;;;;5.53;3.00;;;;;;;9.15;100.00;101104.31;687079;28;1394;-65
2023/01/06 01:07:51;;;;;;;4.97;2.65;;;;;;;9.13;100.00;101103.44;688492;28;1697;-65
2023/01/06 01:08:12;;;;;;;6.90;2.97;;;;;;;9.12;100.00;101105.16;688715;28;1262;-66
2023/01/06 01:08:33;;;;;;;7.20;3.08;;;;;;;9.11;100.00;101111.25;688111;28;1420;-66
2023/01/06 01:08:54;;;;;;;7.05;3.03;;;;;;;9.12;100.00;101107.75;689603;28;1285;-65
2023/01/06 01:09:21;;;;;;;6.25;3.10;;;;;;;9.14;100.00;101108.66;685677;28;1558;-65
2023/01/06 01:09:42;;;;;;;6.32;3.05;;;;;;;9.12;100.00;101107.75;681646;28;4393;-66
2023/01/06 01:10:03;;;;;;;6.00;3.08;;;;;;;9.11;100.00;101105.13;679337;29;1340;-66
2023/01/06 01:10:23;;;;;;;6.53;3.25;;;;;;;9.11;100.00;101106.03;679750;29;1228;-66
2023/01/06 01:10:43;;;;;;;7.43;3.10;;;;;;;9.18;100.00;101104.34;679954;29;1193;-66
2023/01/06 01:11:09;;;;;;;7.32;3.42;;;;;;;9.22;100.00;101108.75;681473;28;1469;-65
2023/01/06 01:12:13;;;;;;;6.28;3.05;;;;;;;9.17;100.00;101105.22;684747;28;1218;-66
2023/01/06 01:12:33;;;;;;;6.15;3.28;;;;;;;9.15;100.00;101104.31;682568;28;1463;-66
2023/01/06 01:12:53;;;;;;;7.18;3.50;;;;;;;9.13;100.00;101104.28;684363;28;4537;-65
2023/01/06 01:13:14;;;;;;;6.63;3.40;;;;;;;9.11;100.00;101100.81;684028;28;2077;-65
2023/01/06 01:13:35;;;;;;;6.90;3.67;;;;;;;9.20;100.00;101100.00;687005;28;1673;-65
2023/01/06 01:13:55;;;;;;;7.20;3.53;;;;;;;9.26;100.00;101109.63;685196;28;1587;-66
2023/01/06 01:14:17;;;;;;;6.30;3.28;;;;;;;9.24;100.00;101106.13;685418;28;1326;-65
2023/01/06 01:14:45;;;;;;;5.50;3.28;;;;;;;9.25;100.00;101102.63;685361;28;1459;-65
2023/01/06 01:15:06;;;;;;;8.32;3.80;;;;;;;9.25;100.00;101106.16;684229;28;1233;-65
2023/01/06 01:15:27;;;;;;;7.75;3.50;;;;;;;9.24;100.00;101103.53;686107;28;1699;-65
2023/01/06 01:15:48;;;;;;;6.00;3.43;;;;;;;9.22;100.00;101094.81;686459;28;4310;-65
2023/01/06 01:16:09;;;;;;;5.93;3.33;;;;;;;9.22;100.00;101107.84;688046;28;1219;-66
2023/01/06 01:16:30;;;;;;;6.90;3.23;;;;;;;9.19;100.00;101101.75;688196;28;4306;-66
2023/01/06 01:16:51;;;;;;;6.68;3.42;;;;;;;9.19;100.00;101106.06;683490;28;1494;-65
2023/01/06 01:17:13;;;;;;;7.30;3.90;;;;;;;9.18;100.00;101100.00;683500;28;1172;-66
2023/01/06 01:17:33;;;;;;;7.53;3.90;;;;;;;9.17;100.00;101100.84;683636;28;1285;-65
2023/01/06 01:17:54;;;;;;;7.15;3.60;;;;;;;9.25;100.00;101097.41;684899;28;1563;-65
2023/01/06 01:18:15;;;;;;;5.97;3.60;;;;;;;9.31;100.00;101102.72;684347;28;1266;-65
2023/01/06 01:18:35;;;;;;;6.43;3.47;;;;;;;9.30;100.00;101106.16;683690;28;1536;-65
2023/01/06 01:18:55;;;;;;;7.13;3.50;;;;;;;9.27;100.00;101101.78;684131;28;4440;-65
2023/01/06 01:19:16;;;;;;;7.07;3.50;;;;;;;9.28;100.00;101102.69;686364;28;1400;-66
2023/01/06 01:19:39;;;;;;;7.03;3.88;;;;;;;9.37;100.00;101107.94;683131;28;1457;-65
2023/01/06 01:19:59;;;;;;;6.90;3.70;;;;;;;9.37;100.00;101102.75;682551;28;1385;-65
2023/01/06 01:20:22;;;;;;;6.50;3.70;;;;;;;9.32;100.00;101100.09;684180;28;1402;-66
2023/01/06 01:20:46;;;;;;;5.60;3.63;;;;;;;9.29;100.00;101104.41;685431;28;1247;-65
2023/01/06 01:21:07;;;;;;;6.32;3.50;;;;;;;9.28;100.00;101107.91;685552;28;1233;-65
2023/01/06 01:21:28;;;;;;;5.87;3.40;;;;;;;9.25;100.00;101110.47;686690;28;1337;-65
2023/01/06 01:21:49;;;;;;;6.25;3.38;;;;;;;9.24;100.00;101111.34;687394;28;4442;-65
2023/01/06 01:22:11;;;;;;;7.43;3.75;;;;;;;9.22;100.00;101107.84;686461;28;1032;-66
2023/01/06 01:22:31;;;;;;;6.65;3.47;;;;;;;9.18;100.00;101107.81;688655;28;1150;-65
2023/01/06 01:22:51;;;;;;;7.57;3.33;;;;;;;9.29;100.00;101107.91;687285;28;1615;-65
2023/01/06 01:23:12;;;;;;;8.38;3.55;;;;;;;9.36;100.00;101109.69;685888;28;1510;-65
2023/01/06 01:23:35;;;;;;;6.55;3.45;;;;;;;9.43;100.00;101107.13;685311;28;1808;-65
2023/01/06 01:23:55;;;;;;;7.45;3.40;;;;;;;9.46;100.00;101105.41;685481;28;1226;-66
2023/01/06 01:24:16;;;;;;;6.78;3.47;;;;;;;9.45;100.00;101106.28;681460;28;1230;-65
2023/01/06 01:24:37;;;;;;;5.85;3.40;;;;;;;9.46;100.00;101101.94;681880;28;4458;-65
2023/01/06 01:24:58;;;;;;;6.45;3.38;;;;;;;9.42;100.00;101105.41;682564;28;1397;-65
2023/01/06 01:25:19;;;;;;;7.00;3.40;;;;;;;9.37;100.00;101103.63;681191;28;1433;-65
2023/01/06 01:25:39;;;;;;;6.90;3.30;;;;;;;9.34;100.00;101105.31;683631;28;1462;-65
2023/01/06 01:26:00;;;;;;;7.65;3.47;;;;;;;9.31;100.00;101103.56;682384;28;1439;-70
2023/01/06 01:26:21;;;;;;;7.00;3.73;;;;;;;9.31;100.00;101097.50;683001;28;1069;-65
2023/01/06 01:26:41;;;;;;;6.40;3.60;;;;;;;9.43;100.00;101104.50;683760;28;1210;-66
2023/01/06 01:27:02;;;;;;;7.10;3.27;;;;;;;9.44;100.00;101108.88;686238;28;1402;-65
2023/01/06 01:27:22;;;;;;;6.38;3.20;;;;;;;9.41;100.00;101112.34;686358;28;1389;-65
2023/01/06 01:27:43;;;;;;;7.17;3.13;;;;;;;9.50;100.00;101103.72;684969;28;4550;-65
2023/01/06 01:28:04;;;;;;;7.00;3.10;;;;;;;9.48;100.00;101103.69;687463;28;1183;-65
2023/01/06 01:28:24;;;;;;;5.70;3.25;;;;;;;9.52;100.00;101108.06;687530;28;1680;-65
2023/01/06 01:28:44;;;;;;;5.47;3.30;;;;;;;9.50;100.00;101106.31;687325;28;1361;-65
2023/01/06 01:29:05;;;;;;;6.63;3.20;;;;;;;9.48;100.00;101100.22;684314;28;1437;-65
2023/01/06 01:29:26;;;;;;;6.07;3.10;;;;;;;9.47;100.00;101106.28;684987;28;1547;-64
2023/01/06 01:29:46;;;;;;;6.37;3.20;;;;;;;9.46;100.00;101105.41;685747;28;1133;-65
2023/01/06 01:30:07;;;;;;;6.78;3.20;;;;;;;9.46;100.00;101105.41;685360;28;1400;-66
2023/01/06 01:30:27;;;;;;;6.90;3.20;;;;;;;9.46;100.00;101101.94;686358;28;1088;-65
2023/01/06 01:30:48;;;;;;;6.95;3.38;;;;;;;9.53;100.00;101103.72;682991;28;4323;-65
2023/01/06 01:31:08;;;;;;;5.93;3.33;;;;;;;9.55;100.00;101107.22;684468;28;1468;-65
2023/01/06 01:31:29;;;;;;;6.47;3.28;;;;;;;9.51;100.00;101105.44;686206;28;1191;-65
2023/01/06 01:31:49;;;;;;;8.00;3.40;;;;;;;9.57;100.00;101104.59;685142;28;1568;-66
2023/01/06 01:32:10;;;;;;;7.50;3.42;;;;;;;9.54;100.00;101102.88;682195;28;1693;-65
2023/01/06 01:32:30;;;;;;;7.23;3.67;;;;;;;9.55;100.00;101104.59;682694;28;1066;-65
2023/01/06 01:32:51;;;;;;;6.25;3.47;;;;;;;9.51;100.00;101103.72;683198;28;1489;-65
2023/01/06 01:33:11;;;;;;;6.47;3.40;;;;;;;9.46;100.00;101094.13;682449;28;1301;-65
2023/01/06 01:33:31;;;;;;;5.93;3.23;;;;;;;9.43;100.00;101104.50;683012;28;1370;-65
2023/01/06 01:33:52;;;;;;;7.27;3.40;;;;;;;9.39;100.00;101103.63;684031;28;4459;-64
2023/01/06 01:34:15;;;;;;;7.90;3.22;;;;;;;9.39;100.00;101101.03;685166;28;1004;-66
2023/01/06 01:34:36;;;;;;;7.50;3.30;;;;;;;9.39;100.00;101106.25;685273;28;1409;-65
2023/01/06 01:34:56;;;;;;;7.10;3.40;;;;;;;9.42;100.00;101105.41;684392;28;1423;-65
2023/01/06 01:35:17;;;;;;;6.07;3.30;;;;;;;9.37;100.00;101105.34;685664;28;1192;-65
2023/01/06 01:35:37;;;;;;;6.45;3.20;;;;;;;9.34;100.00;101103.59;688360;28;1400;-66
2023/01/06 01:36:05;;;;;;;5.90;3.23;;;;;;;9.36;100.00;101109.69;687530;28;1361;-65
2023/01/06 01:36:25;;;;;;;6.55;3.25;;;;;;;9.37;100.00;101102.75;685996;28;1219;-65
2023/01/06 01:36:47;;;;;;;5.82;3.33;;;;;;;9.44;100.00;101109.78;684526;28;4322;-65
2023/01/06 01:37:07;;;;;;;5.75;3.28;;;;;;;9.41;100.00;101109.72;683158;28;1648;-66
2023/01/06 01:37:29;;;;;;;6.35;3.22;;;;;;;9.39;100.00;101111.47;683187;28;1081;-65
2023/01/06 01:37:50;;;;;;;5.70;3.22;;;;;;;9.46;100.00;101102.81;683696;28;1239;-65
2023/01/06 01:38:10;;;;;;;6.30;3.20;;;;;;;9.46;100.00;101101.94;680686;28;1082;-65
2023/01/06 01:38:31;;;;;;;6.30;3.20;;;;;;;9.43;100.00;101107.13;680740;28;1142;-66
2023/01/06 01:38:51;;;;;;;5.97;3.40;;;;;;;9.41;100.00;101109.72;679707;28;5238;-65
2023/01/06 01:39:13;;;;;;;6.93;3.38;;;;;;;9.43;100.00;101112.34;679058;29;1473;-66
2023/01/06 01:39:34;;;;;;;7.25;3.40;;;;;;;9.48;100.00;101111.50;679207;29;1070;-66
2023/01/06 01:39:54;;;;;;;6.22;3.30;;;;;;;9.53;100.00;101115.03;680157;28;4417;-65
2023/01/06 01:40:15;;;;;;;6.97;3.40;;;;;;;9.56;100.00;101108.97;682693;28;1463;-65
2023/01/06 01:40:35;;;;;;;7.50;3.60;;;;;;;9.54;100.00;101113.31;683076;28;1159;-66
2023/01/06 01:40:56;;;;;;;5.93;3.40;;;;;;;9.54;100.00;101106.34;685177;28;1163;-66
2023/01/06 01:41:20;;;;;;;7.50;3.53;;;;;;;9.56;100.00;101108.97;688255;28;1278;-65
2023/01/06 01:41:41;;;;;;;7.13;3.53;;;;;;;9.53;100.00;101109.81;684925;28;1910;-65
2023/01/06 01:42:01;;;;;;;5.88;3.33;;;;;;;9.57;100.00;101115.03;684017;28;1062;-65
2023/01/06 01:42:23;;;;;;;7.00;3.67;;;;;;;9.50;100.00;101112.41;685839;28;1245;-65